createdAt,value
2022-09-23T00:00:06.211Z,6.20
2022-09-23T00:05:30.969Z,7.28
2022-09-23T00:10:38.040Z,7.25
2022-09-23T00:15:43.053Z,7.05
2022-09-23T00:20:46.852Z,7.10
2022-09-23T00:25:57.129Z,6.78
2022-09-23T00:31:05.231Z,6.63
2022-09-23T00:36:11.363Z,6.60
2022-09-23T00:41:16.450Z,7.07
2022-09-23T00:46:23.988Z,7.70
2022-09-23T00:51:34.618Z,7.57
2022-09-23T00:56:40.374Z,7.03
2022-09-23T01:01:45.736Z,6.78
2022-09-23T01:06:49.513Z,6.78
2022-09-23T01:12:01.327Z,6.43
2022-09-23T01:17:11.099Z,6.90
2022-09-23T01:22:22.993Z,7.15
2022-09-23T01:27:47.950Z,6.10
2022-09-23T01:33:04.802Z,6.65
2022-09-23T01:38:18.196Z,7.03
2022-09-23T01:43:28.895Z,6.30
2022-09-23T01:48:40.133Z,6.72
2022-09-23T01:53:48.985Z,7.40
2022-09-23T01:58:57.894Z,6.80
2022-09-23T02:04:08.898Z,6.93
2022-09-23T02:09:15.951Z,7.20
2022-09-23T02:14:25.562Z,7.47
2022-09-23T02:19:35.386Z,7.35
2022-09-23T02:24:40.783Z,7.47
2022-09-23T02:29:54.958Z,6.47
2022-09-23T02:35:07.409Z,7.53
2022-09-23T02:40:17.935Z,8.30
2022-09-23T02:45:21.739Z,7.60
2022-09-23T02:50:26.894Z,7.32
2022-09-23T02:55:32.444Z,8.07
2022-09-23T03:00:50.188Z,7.85
2022-09-23T03:05:59.735Z,7.65
2022-09-23T03:11:07.647Z,7.32
2022-09-23T03:16:18.076Z,6.82
2022-09-23T03:21:26.406Z,7.15
2022-09-23T03:26:32.561Z,7.68
2022-09-23T03:31:39.818Z,6.95
2022-09-23T03:36:53.880Z,6.72
2022-09-23T03:42:02.008Z,7.13
2022-09-23T03:47:06.581Z,7.22
2022-09-23T03:52:12.212Z,6.73
2022-09-23T03:57:16.575Z,6.57
2022-09-23T04:02:21.473Z,7.38
2022-09-23T04:07:26.661Z,7.65
2022-09-23T04:12:30.358Z,6.90
2022-09-23T04:17:35.021Z,7.95
2022-09-23T04:22:40.031Z,7.10
2022-09-23T04:27:43.690Z,8.07
2022-09-23T04:32:47.469Z,7.50
2022-09-23T04:37:52.677Z,8.88
2022-09-23T04:42:56.640Z,9.25
2022-09-23T04:48:00.590Z,7.15
2022-09-23T04:53:07.186Z,8.95
2022-09-23T04:58:11.774Z,10.52
2022-09-23T05:03:16.228Z,7.95
2022-09-23T05:08:22.219Z,10.07
2022-09-23T05:13:26.171Z,9.48
2022-09-23T05:18:32.465Z,9.93
2022-09-23T05:23:38.039Z,8.73
2022-09-23T05:28:41.901Z,9.25
2022-09-23T05:33:48.798Z,9.23
2022-09-23T05:38:56.721Z,7.88
2022-09-23T05:44:00.888Z,8.73
2022-09-23T05:49:06.014Z,9.82
2022-09-23T05:54:12.453Z,8.75
2022-09-23T05:59:16.243Z,8.52
2022-09-23T06:04:20.222Z,8.88
2022-09-23T06:09:25.771Z,10.18
2022-09-23T06:14:29.637Z,9.38
2022-09-23T06:19:33.521Z,8.73
2022-09-23T06:24:38.809Z,8.48
2022-09-23T06:29:43.089Z,10.60
2022-09-23T06:34:51.941Z,10.52
2022-09-23T06:39:57.470Z,9.00
2022-09-23T06:45:02.297Z,9.48
2022-09-23T06:50:07.790Z,9.10
2022-09-23T06:55:13.145Z,9.97
2022-09-23T07:00:17.329Z,9.32
2022-09-23T07:05:22.504Z,10.18
2022-09-23T07:10:28.202Z,9.10
2022-09-23T07:15:32.872Z,9.70
2022-09-23T07:20:39.599Z,10.57
2022-09-23T07:25:46.907Z,8.40
2022-09-23T07:30:59.561Z,9.38
2022-09-23T07:36:10.338Z,8.20
2022-09-23T07:41:18.117Z,8.55
2022-09-23T07:46:25.329Z,9.25
2022-09-23T07:51:36.133Z,9.45
2022-09-23T07:56:44.198Z,9.32
2022-09-23T08:01:50.412Z,8.55
2022-09-23T08:06:55.736Z,9.75
2022-09-23T08:12:01.534Z,8.15
2022-09-23T08:17:06.017Z,8.07
2022-09-23T08:22:10.120Z,7.72
2022-09-23T08:27:15.349Z,8.32
2022-09-23T08:32:19.117Z,6.60
2022-09-23T08:37:23.211Z,6.97
2022-09-23T08:42:32.879Z,6.82
2022-09-23T08:47:45.608Z,5.93
2022-09-23T08:52:53.249Z,5.50
2022-09-23T08:58:26.232Z,5.90
2022-09-23T09:03:36.608Z,6.43
2022-09-23T09:08:41.433Z,5.35
2022-09-23T09:13:54.623Z,5.77
2022-09-23T09:19:00.476Z,5.70
2022-09-23T09:24:14.034Z,5.43
2022-09-23T09:29:42.434Z,4.55
2022-09-23T09:34:54.833Z,4.13
2022-09-23T09:39:58.654Z,5.15
2022-09-23T09:45:12.850Z,4.45
2022-09-23T09:50:21.812Z,4.57
2022-09-23T09:55:28.655Z,4.38
2022-09-23T10:00:42.956Z,4.45
2022-09-23T10:05:52.357Z,3.88
2022-09-23T10:11:02.699Z,3.58
2022-09-23T10:16:08.846Z,3.50
2022-09-23T10:21:15.291Z,3.05
2022-09-23T10:26:27.976Z,3.40
2022-09-23T10:31:35.264Z,3.00
2022-09-23T10:36:43.765Z,3.20
2022-09-23T10:42:17.349Z,3.55
2022-09-23T10:47:34.626Z,3.50
2022-09-23T10:52:51.230Z,4.80
2022-09-23T10:58:11.775Z,3.90
2022-09-23T11:03:34.167Z,3.42
2022-09-23T11:08:51.750Z,3.38
2022-09-23T11:14:07.369Z,3.67
2022-09-23T11:19:33.320Z,3.13
2022-09-23T11:25:06.880Z,2.80
2022-09-23T11:30:15.005Z,2.22
2022-09-23T11:35:25.090Z,2.35
2022-09-23T11:40:33.270Z,2.25
2022-09-23T11:45:43.024Z,1.88
2022-09-23T11:50:57.258Z,1.50
2022-09-23T11:56:07.173Z,3.05
2022-09-23T12:01:36.455Z,2.22
2022-09-23T12:06:46.618Z,2.28
2022-09-23T12:11:58.648Z,2.45
2022-09-23T12:17:17.793Z,2.72
2022-09-23T12:22:40.716Z,2.00
2022-09-23T12:27:48.150Z,2.85
2022-09-23T12:32:52.363Z,2.50
2022-09-23T12:37:58.262Z,3.30
2022-09-23T12:48:28.123Z,5.72
2022-09-23T12:53:55.539Z,4.73
2022-09-23T12:59:26.365Z,3.53
2022-09-23T13:05:01.494Z,3.17
2022-09-23T13:10:16.882Z,3.30
2022-09-23T13:15:30.015Z,3.10
2022-09-23T13:20:38.562Z,3.70
2022-09-23T13:25:45.244Z,3.13
2022-09-23T13:30:52.232Z,2.70
2022-09-23T13:36:02.353Z,2.20
2022-09-23T13:41:12.450Z,2.47
2022-09-23T13:46:19.606Z,3.35
2022-09-23T13:51:25.999Z,2.85
2022-09-23T13:56:33.354Z,2.75
2022-09-23T14:01:37.390Z,2.28
2022-09-23T14:06:42.566Z,2.35
2022-09-23T14:11:48.038Z,2.20
2022-09-23T14:16:52.890Z,2.88
2022-09-23T14:21:57.652Z,3.17
2022-09-23T14:27:12.171Z,2.90
2022-09-23T14:32:21.178Z,3.00
2022-09-23T14:37:47.355Z,2.80
2022-09-23T14:48:01.193Z,3.03
2022-09-23T14:53:05.676Z,4.10
2022-09-23T14:58:18.441Z,3.88
2022-09-23T15:03:22.713Z,3.78
2022-09-23T15:08:29.130Z,3.42
2022-09-23T15:13:39.616Z,3.78
2022-09-23T15:18:46.503Z,3.45
2022-09-23T15:23:54.973Z,5.00
2022-09-23T15:29:02.152Z,5.45
2022-09-23T15:34:06.715Z,5.07
2022-09-23T15:39:13.497Z,5.28
2022-09-23T15:44:21.832Z,6.90
2022-09-23T15:49:30.194Z,5.55
2022-09-23T15:54:34.572Z,7.05
2022-09-23T15:59:40.239Z,10.73
2022-09-23T16:04:47.334Z,15.55
2022-09-23T16:09:51.881Z,32.85
2022-09-23T16:14:57.095Z,47.45
2022-09-23T16:20:16.786Z,41.67
2022-09-23T16:25:30.242Z,19.50
2022-09-23T16:30:35.780Z,29.50
2022-09-23T16:35:39.977Z,25.63
2022-09-23T16:40:47.215Z,36.08
2022-09-23T16:45:52.981Z,30.58
2022-09-23T16:50:56.881Z,171.38
2022-09-23T16:56:06.671Z,96.55
2022-09-23T17:01:33.930Z,73.45
2022-09-23T17:06:43.274Z,41.78
2022-09-23T17:11:48.334Z,79.50
2022-09-23T17:16:53.773Z,63.53
2022-09-23T17:21:57.584Z,58.38
2022-09-23T17:27:01.565Z,63.22
2022-09-23T17:32:08.723Z,120.40
2022-09-23T17:37:12.754Z,143.05
2022-09-23T17:42:18.825Z,96.15
2022-09-23T17:52:27.761Z,73.30
2022-09-23T17:57:31.644Z,60.08
2022-09-23T18:02:37.024Z,81.43
2022-09-23T18:07:40.857Z,54.42
2022-09-23T18:12:44.898Z,46.42
2022-09-23T18:17:50.236Z,40.72
2022-09-23T18:22:54.118Z,44.53
2022-09-23T18:27:57.949Z,38.50
2022-09-23T18:33:03.510Z,40.08
2022-09-23T18:38:07.825Z,42.53
2022-09-23T18:43:11.818Z,40.95
2022-09-23T18:48:39.440Z,40.63
2022-09-23T18:53:44.003Z,34.67
2022-09-23T18:58:48.425Z,42.78
2022-09-23T19:03:56.793Z,39.28
2022-09-23T19:09:00.721Z,40.63
2022-09-23T19:14:06.748Z,41.20
2022-09-23T19:24:20.033Z,38.67
2022-09-23T19:29:24.915Z,55.00
2022-09-23T19:34:30.895Z,52.45
2022-09-23T19:39:35.207Z,38.42
2022-09-23T19:44:39.385Z,35.58
2022-09-23T19:49:44.823Z,40.25
2022-09-23T19:54:49.131Z,35.83
2022-09-23T19:59:52.966Z,33.08
2022-09-23T20:04:58.012Z,32.88
2022-09-23T20:10:01.989Z,35.08
2022-09-23T20:15:06.807Z,34.03
2022-09-23T20:20:15.889Z,32.75
2022-09-23T20:25:19.901Z,35.92
2022-09-23T20:30:23.702Z,34.38
2022-09-23T20:36:17.405Z,34.28
2022-09-23T20:41:21.260Z,33.57
2022-09-23T20:46:25.075Z,28.58
2022-09-23T20:51:33.419Z,26.73
2022-09-23T20:56:37.773Z,26.30
2022-09-23T21:01:42.852Z,24.23
2022-09-23T21:06:48.144Z,26.08
2022-09-23T21:11:51.827Z,24.53
2022-09-23T21:16:55.853Z,24.95
2022-09-23T21:22:01.115Z,22.58
2022-09-23T21:27:04.976Z,22.87
2022-09-23T21:32:08.915Z,33.03
2022-09-23T21:37:14.041Z,20.23
2022-09-23T21:42:17.878Z,24.67
2022-09-23T21:47:21.746Z,29.40
2022-09-23T21:52:26.924Z,23.60
2022-09-23T21:57:31.129Z,19.37
2022-09-23T22:02:35.379Z,18.55
2022-09-23T22:07:40.390Z,20.08
2022-09-23T22:12:44.988Z,23.92
2022-09-23T22:17:48.964Z,17.83
2022-09-23T22:22:54.274Z,18.75
2022-09-23T22:28:17.594Z,20.10
2022-09-23T22:33:22.179Z,13.43
2022-09-23T22:38:27.705Z,15.80
2022-09-23T22:43:33.821Z,14.73
2022-09-23T22:53:42.646Z,16.65
2022-09-23T22:58:46.961Z,13.60
2022-09-23T23:03:54.432Z,13.88
2022-09-23T23:09:00.126Z,31.17
2022-09-23T23:14:04.569Z,30.83
2022-09-23T23:19:12.131Z,29.05
2022-09-23T23:24:19.068Z,20.92
2022-09-23T23:29:23.745Z,18.50
2022-09-23T23:34:27.991Z,13.75
2022-09-23T23:39:34.872Z,12.18
2022-09-23T23:44:38.669Z,13.55
2022-09-23T23:49:42.315Z,22.10
2022-09-23T23:54:47.541Z,18.73
2022-09-23T23:59:51.538Z,18.08
